Time;durP1;ratioP1;P1;durP2;ratioP2;P2;SDS_P1;SDS_P2;PMS_P1;PMS_P2;Temp;Humidity;BMP_temperature;BMP_pressure;BME280_temperature;BME280_humidity;BME280_pressure;Samples;Min_cycle;Max_cycle;Signal;HPM_P1;HPM_P2
2021/08/05 00:01:35;;;;;;;3.28;1.42;;;;;;;;;;5032053;28;20053;-58
2021/08/05 00:04:04;;;;;;;4.78;2.20;;;;;;;;;;5032894;28;20050;-58
2021/08/05 00:06:32;;;;;;;6.05;1.55;;;;;;;;;;5029859;28;20060;-58
2021/08/05 00:09:00;;;;;;;2.30;1.50;;;;;;;;;;5031944;28;20072;-57
2021/08/05 00:11:30;;;;;;;4.07;1.77;;;;;;;;;;5036461;28;20484;-58
2021/08/05 00:13:58;;;;;;;2.75;1.40;;;;;;;;;;5031248;28;20631;-58
2021/08/05 00:16:27;;;;;;;4.05;1.60;;;;;;;;;;5031577;28;20413;-58
2021/08/05 00:18:55;;;;;;;3.45;1.50;;;;;;;;;;5032551;28;20053;-57
2021/08/05 00:21:23;;;;;;;3.65;2.13;;;;;;;;;;5032416;28;20048;-58
2021/08/05 00:23:52;;;;;;;2.55;1.58;;;;;;;;;;5032387;28;20096;-56
2021/08/05 00:26:20;;;;;;;4.63;1.70;;;;;;;;;;5032367;28;20059;-58
2021/08/05 00:28:50;;;;;;;1.98;1.30;;;;;;;;;;5033365;28;20091;-58
2021/08/05 00:31:18;;;;;;;3.53;1.45;;;;;;;;;;5033028;28;20051;-58
2021/08/05 00:33:47;;;;;;;3.40;1.83;;;;;;;;;;5031547;28;20052;-58
2021/08/05 00:36:15;;;;;;;5.35;1.55;;;;;;;;;;5032242;28;20056;-56
2021/08/05 00:38:44;;;;;;;2.67;1.50;;;;;;;;;;5049116;28;20079;-58
2021/08/05 00:41:12;;;;;;;2.45;1.48;;;;;;;;;;5039608;28;20134;-58
2021/08/05 00:43:41;;;;;;;3.05;1.50;;;;;;;;;;5032305;28;20097;-58
2021/08/05 00:46:10;;;;;;;3.15;1.58;;;;;;;;;;5032133;28;20539;-57
2021/08/05 00:48:39;;;;;;;4.95;1.73;;;;;;;;;;5040133;28;20052;-58
2021/08/05 00:51:07;;;;;;;4.47;1.40;;;;;;;;;;5032003;28;20049;-58
2021/08/05 00:53:36;;;;;;;2.78;1.20;;;;;;;;;;5032287;28;20048;-57
2021/08/05 00:56:04;;;;;;;5.07;1.67;;;;;;;;;;5030437;28;20140;-58
2021/08/05 00:58:33;;;;;;;3.22;1.27;;;;;;;;;;5030540;28;20460;-57
2021/08/05 01:01:05;;;;;;;2.42;1.30;;;;;;;;;;5031785;28;20067;-58
2021/08/05 01:03:37;;;;;;;6.28;1.40;;;;;;;;;;5029306;28;20135;-58
2021/08/05 01:06:07;;;;;;;1.70;0.90;;;;;;;;;;5029406;28;20472;-57
2021/08/05 01:08:37;;;;;;;4.47;1.63;;;;;;;;;;5036510;28;20067;-57
2021/08/05 01:11:08;;;;;;;3.05;1.23;;;;;;;;;;5030468;28;20037;-58
2021/08/05 01:13:38;;;;;;;1.85;1.05;;;;;;;;;;5032186;28;20041;-57
2021/08/05 01:16:10;;;;;;;2.60;1.27;;;;;;;;;;5023593;28;20160;-57
2021/08/05 01:18:41;;;;;;;1.65;1.17;;;;;;;;;;5029523;28;20117;-57
2021/08/05 01:21:13;;;;;;;2.28;1.20;;;;;;;;;;5035084;28;20612;-58
2021/08/05 01:23:42;;;;;;;2.92;1.40;;;;;;;;;;5042209;28;20113;-59
2021/08/05 01:26:12;;;;;;;2.50;1.17;;;;;;;;;;5022003;28;20124;-57
2021/08/05 01:28:43;;;;;;;4.25;1.58;;;;;;;;;;5031525;28;20049;-57
2021/08/05 01:31:12;;;;;;;3.03;1.70;;;;;;;;;;5033265;28;20080;-57
2021/08/05 01:33:40;;;;;;;3.22;1.30;;;;;;;;;;5030735;28;20050;-56
2021/08/05 01:36:08;;;;;;;3.78;1.60;;;;;;;;;;5038005;28;20400;-56
2021/08/05 01:38:38;;;;;;;4.80;1.42;;;;;;;;;;5031465;28;20140;-56
2021/08/05 01:41:08;;;;;;;2.65;1.23;;;;;;;;;;5030587;28;20057;-57
2021/08/05 01:43:37;;;;;;;2.88;1.50;;;;;;;;;;5031365;28;20050;-56
2021/08/05 01:46:07;;;;;;;2.75;1.40;;;;;;;;;;5029777;28;20063;-57
2021/08/05 01:48:35;;;;;;;3.80;1.48;;;;;;;;;;5033073;28;20076;-56
2021/08/05 01:51:07;;;;;;;2.22;1.20;;;;;;;;;;5045764;28;20053;-57
2021/08/05 01:53:35;;;;;;;2.97;1.60;;;;;;;;;;5029143;28;20049;-56
2021/08/05 01:56:04;;;;;;;4.65;1.73;;;;;;;;;;5029564;28;20194;-57
2021/08/05 01:58:32;;;;;;;2.58;1.10;;;;;;;;;;5039682;28;20436;-57
2021/08/05 02:01:04;;;;;;;3.00;1.60;;;;;;;;;;5030115;28;20060;-58
2021/08/05 02:03:34;;;;;;;2.75;1.65;;;;;;;;;;5030143;28;20508;-57
2021/08/05 02:06:06;;;;;;;2.53;1.45;;;;;;;;;;5033292;28;20049;-57
2021/08/05 02:08:39;;;;;;;3.13;1.58;;;;;;;;;;5034513;28;20138;-57
2021/08/05 02:11:08;;;;;;;2.03;1.50;;;;;;;;;;5018010;28;20149;-57
2021/08/05 02:13:40;;;;;;;5.35;1.92;;;;;;;;;;5005816;28;20054;-58
2021/08/05 02:16:10;;;;;;;3.90;2.08;;;;;;;;;;5029764;28;20119;-58
2021/08/05 02:18:43;;;;;;;4.28;2.03;;;;;;;;;;5039185;28;20048;-58
2021/08/05 02:21:12;;;;;;;4.43;1.90;;;;;;;;;;5030837;28;20106;-57
2021/08/05 02:23:41;;;;;;;4.20;1.88;;;;;;;;;;5032738;28;20567;-58
2021/08/05 02:26:10;;;;;;;4.30;2.20;;;;;;;;;;5020381;28;20612;-57
2021/08/05 02:28:38;;;;;;;4.30;2.00;;;;;;;;;;5031374;28;20406;-57
2021/08/05 02:31:08;;;;;;;3.90;1.92;;;;;;;;;;5035251;28;20106;-58
2021/08/05 02:33:37;;;;;;;3.90;2.00;;;;;;;;;;5022204;28;20053;-58
2021/08/05 02:36:07;;;;;;;3.20;1.70;;;;;;;;;;5029538;28;20052;-58
2021/08/05 02:38:35;;;;;;;3.22;1.63;;;;;;;;;;5030514;28;20053;-58
2021/08/05 02:41:04;;;;;;;3.75;1.55;;;;;;;;;;5029966;28;20145;-57
2021/08/05 02:43:33;;;;;;;3.20;1.52;;;;;;;;;;5030630;28;20052;-58
2021/08/05 02:46:02;;;;;;;1.65;1.00;;;;;;;;;;5032535;28;20071;-58
2021/08/05 02:48:31;;;;;;;3.10;1.67;;;;;;;;;;5030398;28;20175;-57
2021/08/05 02:50:59;;;;;;;2.22;0.90;;;;;;;;;;5026042;28;20205;-57
2021/08/05 02:53:30;;;;;;;1.70;1.02;;;;;;;;;;5038543;28;20045;-57
2021/08/05 02:55:58;;;;;;;1.77;0.80;;;;;;;;;;5021397;28;20109;-57
2021/08/05 02:58:26;;;;;;;1.30;0.85;;;;;;;;;;5035071;28;20037;-57
2021/08/05 03:00:55;;;;;;;1.45;0.80;;;;;;;;;;5029956;28;20141;-56
2021/08/05 03:03:24;;;;;;;2.15;0.82;;;;;;;;;;5028917;28;20053;-58
2021/08/05 03:05:52;;;;;;;2.13;1.02;;;;;;;;;;5026874;28;20148;-57
2021/08/05 03:08:20;;;;;;;1.10;0.77;;;;;;;;;;5028083;28;20058;-57
2021/08/05 03:10:50;;;;;;;1.00;0.75;;;;;;;;;;5028800;28;20053;-58
2021/08/05 03:13:18;;;;;;;1.20;0.80;;;;;;;;;;5029928;28;20053;-58
2021/08/05 03:15:47;;;;;;;2.00;0.90;;;;;;;;;;5025612;28;20404;-58
2021/08/05 03:18:15;;;;;;;0.82;0.60;;;;;;;;;;5030522;28;20060;-57
2021/08/05 03:20:43;;;;;;;1.65;0.98;;;;;;;;;;5043143;28;20076;-58
2021/08/05 03:23:11;;;;;;;1.90;0.68;;;;;;;;;;5027346;28;20478;-57
2021/08/05 03:25:39;;;;;;;3.47;0.90;;;;;;;;;;5018191;28;20052;-57
2021/08/05 03:28:09;;;;;;;2.13;1.40;;;;;;;;;;5024560;28;20060;-58
2021/08/05 03:30:51;;;;;;;1.75;1.00;;;;;;;;;;2119080;28;10023750;-57
2021/08/05 03:33:19;;;;;;;1.98;0.75;;;;;;;;;;3642622;28;10001504;-58
2021/08/05 03:35:47;;;;;;;2.45;0.80;;;;;;;;;;5035060;28;20042;-58
2021/08/05 03:38:15;;;;;;;4.22;1.08;;;;;;;;;;5036587;28;20208;-58
2021/08/05 03:40:43;;;;;;;1.65;1.20;;;;;;;;;;5035905;28;20048;-57
2021/08/05 03:43:13;;;;;;;1.35;1.05;;;;;;;;;;5036412;28;20048;-58
2021/08/05 03:45:41;;;;;;;1.88;1.17;;;;;;;;;;5030203;28;20050;-58
2021/08/05 03:48:10;;;;;;;3.20;1.35;;;;;;;;;;5026225;28;20053;-57
2021/08/05 03:50:38;;;;;;;3.15;1.50;;;;;;;;;;5035233;28;20590;-57
2021/08/05 03:53:06;;;;;;;3.88;1.38;;;;;;;;;;5036463;28;20128;-57
2021/08/05 03:55:35;;;;;;;3.13;1.73;;;;;;;;;;5038606;28;20049;-58
2021/08/05 03:58:03;;;;;;;8.27;1.90;;;;;;;;;;5034253;28;20404;-57
2021/08/05 04:00:32;;;;;;;2.85;1.70;;;;;;;;;;5034801;28;20133;-57
2021/08/05 04:03:01;;;;;;;4.45;2.00;;;;;;;;;;5037382;28;20037;-57
2021/08/05 04:05:29;;;;;;;4.40;2.25;;;;;;;;;;5024160;28;20075;-57
2021/08/05 04:07:57;;;;;;;5.10;2.17;;;;;;;;;;5048647;28;20139;-57
2021/08/05 04:10:26;;;;;;;4.68;2.20;;;;;;;;;;5041137;28;20124;-58
2021/08/05 04:12:54;;;;;;;7.20;2.78;;;;;;;;;;5040136;28;20144;-57
2021/08/05 04:15:22;;;;;;;6.60;2.92;;;;;;;;;;5035067;28;20136;-58
2021/08/05 04:17:52;;;;;;;5.75;2.80;;;;;;;;;;5036013;28;20136;-57
2021/08/05 04:20:21;;;;;;;6.68;2.85;;;;;;;;;;5033648;28;20136;-57
2021/08/05 04:22:50;;;;;;;5.95;3.05;;;;;;;;;;5035237;28;20060;-58
2021/08/05 04:25:18;;;;;;;6.10;3.53;;;;;;;;;;5035132;28;20483;-57
2021/08/05 04:27:46;;;;;;;8.88;3.70;;;;;;;;;;5036787;28;20136;-58
2021/08/05 04:30:15;;;;;;;5.63;3.33;;;;;;;;;;5034816;28;20111;-57
2021/08/05 04:32:44;;;;;;;4.82;2.97;;;;;;;;;;5016580;28;20573;-58
2021/08/05 04:35:14;;;;;;;6.47;3.53;;;;;;;;;;5018817;28;20133;-57
2021/08/05 04:37:49;;;;;;;6.10;3.13;;;;;;;;;;5034908;28;20053;-58
2021/08/05 04:40:17;;;;;;;4.97;2.75;;;;;;;;;;5039086;28;20127;-59
2021/08/05 04:42:46;;;;;;;9.23;2.95;;;;;;;;;;5056514;28;20611;-59
2021/08/05 04:45:19;;;;;;;7.32;3.45;;;;;;;;;;5050566;28;20045;-58
2021/08/05 04:47:51;;;;;;;6.40;2.95;;;;;;;;;;5037718;28;20080;-58
2021/08/05 04:50:21;;;;;;;5.45;3.22;;;;;;;;;;5037010;28;20456;-58
2021/08/05 04:52:50;;;;;;;4.03;2.63;;;;;;;;;;5040533;28;20049;-56
2021/08/05 04:55:18;;;;;;;6.63;3.65;;;;;;;;;;5039276;28;20067;-57
2021/08/05 04:57:47;;;;;;;5.15;2.92;;;;;;;;;;5048912;28;20053;-58
2021/08/05 05:00:15;;;;;;;9.43;3.13;;;;;;;;;;5036752;28;20140;-58
2021/08/05 05:02:43;;;;;;;6.43;3.50;;;;;;;;;;5030945;28;20048;-58
2021/08/05 05:05:12;;;;;;;5.00;2.30;;;;;;;;;;5029553;28;20489;-56
2021/08/05 05:07:42;;;;;;;5.40;3.13;;;;;;;;;;5039528;28;20517;-57
2021/08/05 05:10:12;;;;;;;7.63;2.60;;;;;;;;;;5027747;28;20096;-57
2021/08/05 05:12:40;;;;;;;4.53;2.92;;;;;;;;;;5031753;28;20136;-57
2021/08/05 05:15:09;;;;;;;6.45;2.72;;;;;;;;;;5030137;28;20053;-57
2021/08/05 05:17:38;;;;;;;3.65;2.03;;;;;;;;;;5052205;28;20080;-57
2021/08/05 05:20:08;;;;;;;4.43;2.42;;;;;;;;;;5034228;28;20053;-57
2021/08/05 05:22:39;;;;;;;6.10;2.20;;;;;;;;;;5025440;28;20057;-57
2021/08/05 05:25:10;;;;;;;4.38;1.83;;;;;;;;;;5024464;28;20057;-57
2021/08/05 05:27:38;;;;;;;3.22;1.95;;;;;;;;;;5035702;28;20124;-56
2021/08/05 05:30:07;;;;;;;4.25;2.38;;;;;;;;;;5029731;28;20077;-58
2021/08/05 05:32:36;;;;;;;2.97;1.77;;;;;;;;;;5036538;28;20049;-58
2021/08/05 05:35:05;;;;;;;2.83;1.88;;;;;;;;;;5042779;28;20559;-57
2021/08/05 05:37:33;;;;;;;2.95;1.70;;;;;;;;;;5039122;28;20044;-57
2021/08/05 05:40:02;;;;;;;4.70;2.05;;;;;;;;;;5024105;28;20068;-57
2021/08/05 05:42:33;;;;;;;4.28;2.35;;;;;;;;;;5021051;28;20061;-58
2021/08/05 05:45:02;;;;;;;5.60;2.38;;;;;;;;;;5039437;28;20049;-57
2021/08/05 05:47:30;;;;;;;4.40;1.80;;;;;;;;;;5032768;28;20709;-57
2021/08/05 05:49:59;;;;;;;4.63;1.75;;;;;;;;;;5016305;28;20144;-57
2021/08/05 05:52:27;;;;;;;4.28;2.00;;;;;;;;;;5021731;28;20049;-57
2021/08/05 05:54:55;;;;;;;5.10;2.10;;;;;;;;;;5039026;28;20123;-57
2021/08/05 05:57:24;;;;;;;4.78;1.80;;;;;;;;;;5042912;28;20135;-58
2021/08/05 05:59:53;;;;;;;2.75;1.85;;;;;;;;;;5021155;28;20057;-58
2021/08/05 06:02:21;;;;;;;2.75;1.85;;;;;;;;;;5032265;28;20175;-58
2021/08/05 06:04:50;;;;;;;2.90;1.77;;;;;;;;;;5039851;28;20037;-59
2021/08/05 06:07:18;;;;;;;3.80;1.85;;;;;;;;;;5042034;28;20049;-57
2021/08/05 06:09:47;;;;;;;3.97;2.20;;;;;;;;;;5030057;28;20569;-57
2021/08/05 06:12:15;;;;;;;6.38;2.17;;;;;;;;;;5044453;28;20051;-58
2021/08/05 06:14:44;;;;;;;2.85;1.63;;;;;;;;;;5032414;28;20136;-57
2021/08/05 06:17:14;;;;;;;5.57;2.10;;;;;;;;;;5041833;28;20053;-58
2021/08/05 06:19:42;;;;;;;4.00;2.10;;;;;;;;;;5022750;28;20043;-58
2021/08/05 06:22:11;;;;;;;2.17;1.45;;;;;;;;;;5027350;28;20164;-59
2021/08/05 06:24:39;;;;;;;3.28;1.60;;;;;;;;;;5024357;28;20049;-58
2021/08/05 06:27:08;;;;;;;1.85;1.20;;;;;;;;;;5026930;28;20083;-58
2021/08/05 06:29:36;;;;;;;4.72;1.90;;;;;;;;;;5024824;28;20371;-57
2021/08/05 06:32:06;;;;;;;5.13;1.73;;;;;;;;;;5001840;28;20454;-59
2021/08/05 06:34:36;;;;;;;4.72;2.05;;;;;;;;;;5019833;28;20133;-58
2021/08/05 06:37:05;;;;;;;3.40;1.80;;;;;;;;;;5021967;28;20059;-59
2021/08/05 06:39:33;;;;;;;5.20;2.03;;;;;;;;;;5021591;28;20053;-58
2021/08/05 06:42:01;;;;;;;2.92;1.83;;;;;;;;;;5014381;28;20530;-59
2021/08/05 06:44:34;;;;;;;6.07;1.70;;;;;;;;;;5031545;28;20601;-57
2021/08/05 06:47:03;;;;;;;4.22;1.60;;;;;;;;;;5027078;28;20122;-58
2021/08/05 06:49:32;;;;;;;1.90;1.52;;;;;;;;;;5032260;28;20648;-58
2021/08/05 06:52:02;;;;;;;6.32;2.10;;;;;;;;;;5034322;28;20118;-58
2021/08/05 06:54:30;;;;;;;5.15;1.83;;;;;;;;;;5016908;28;20433;-57
2021/08/05 06:56:58;;;;;;;3.20;1.75;;;;;;;;;;5021797;28;20152;-57
2021/08/05 06:59:27;;;;;;;6.50;2.20;;;;;;;;;;5020517;28;20049;-57
2021/08/05 07:01:55;;;;;;;4.50;1.80;;;;;;;;;;5018727;28;20128;-57
2021/08/05 07:04:23;;;;;;;3.67;1.88;;;;;;;;;;5019714;28;20049;-57
2021/08/05 07:06:52;;;;;;;5.85;2.17;;;;;;;;;;5010597;28;20053;-56
2021/08/05 07:09:22;;;;;;;3.00;1.92;;;;;;;;;;5033799;28;20127;-57
2021/08/05 07:11:50;;;;;;;5.28;2.25;;;;;;;;;;5034507;28;20041;-57
2021/08/05 07:14:19;;;;;;;3.15;1.80;;;;;;;;;;5025317;28;20103;-57
2021/08/05 07:16:48;;;;;;;4.15;1.85;;;;;;;;;;5025985;28;20172;-58
2021/08/05 07:19:17;;;;;;;4.15;2.15;;;;;;;;;;5024868;28;20457;-57
2021/08/05 07:21:45;;;;;;;5.40;2.47;;;;;;;;;;5039461;28;20051;-57
2021/08/05 07:24:13;;;;;;;8.55;2.53;;;;;;;;;;5027222;28;20152;-58
2021/08/05 07:26:43;;;;;;;4.38;2.30;;;;;;;;;;5041247;28;20430;-57
2021/08/05 07:29:12;;;;;;;3.78;2.28;;;;;;;;;;5025339;28;20060;-58
2021/08/05 07:31:40;;;;;;;4.75;2.50;;;;;;;;;;5030251;28;20077;-57
2021/08/05 07:34:09;;;;;;;4.22;2.65;;;;;;;;;;5016692;28;20057;-58
2021/08/05 07:36:37;;;;;;;6.82;2.58;;;;;;;;;;5026161;28;20487;-57
2021/08/05 07:39:11;;;;;;;5.32;2.70;;;;;;;;;;5028793;28;20071;-57
2021/08/05 07:41:44;;;;;;;4.88;2.72;;;;;;;;;;5014499;28;20056;-58
2021/08/05 07:44:13;;;;;;;5.35;2.13;;;;;;;;;;5016553;28;20051;-57
2021/08/05 07:46:42;;;;;;;4.65;2.88;;;;;;;;;;5038350;28;20116;-58
2021/08/05 07:49:12;;;;;;;5.57;2.55;;;;;;;;;;5013981;28;20850;-57
2021/08/05 07:51:41;;;;;;;7.55;2.50;;;;;;;;;;5017813;28;20060;-57
2021/08/05 07:54:10;;;;;;;4.40;2.67;;;;;;;;;;5027693;28;20160;-56
2021/08/05 07:56:38;;;;;;;6.95;3.33;;;;;;;;;;5030138;28;20045;-57
2021/08/05 07:59:08;;;;;;;7.95;3.15;;;;;;;;;;5021451;28;20132;-57
2021/08/05 08:01:37;;;;;;;8.05;2.80;;;;;;;;;;5031126;28;20049;-57
2021/08/05 08:04:06;;;;;;;6.22;3.35;;;;;;;;;;5022971;28;20054;-58
2021/08/05 08:06:35;;;;;;;5.85;2.47;;;;;;;;;;5033563;28;20128;-57
2021/08/05 08:09:04;;;;;;;5.93;2.67;;;;;;;;;;5027607;28;20053;-57
2021/08/05 08:11:33;;;;;;;7.90;3.00;;;;;;;;;;5040382;28;20049;-58
2021/08/05 08:14:01;;;;;;;6.45;3.22;;;;;;;;;;5024293;28;20127;-57
2021/08/05 08:16:32;;;;;;;7.93;3.75;;;;;;;;;;5023767;28;20080;-57
2021/08/05 08:19:01;;;;;;;6.15;3.25;;;;;;;;;;5029895;28;20500;-57
2021/08/05 08:21:30;;;;;;;5.50;3.20;;;;;;;;;;5032928;28;20060;-57
2021/08/05 08:23:59;;;;;;;4.68;2.72;;;;;;;;;;5025889;28;20041;-57
2021/08/05 08:26:27;;;;;;;4.95;2.90;;;;;;;;;;5031657;28;20141;-57
2021/08/05 08:28:56;;;;;;;6.53;3.33;;;;;;;;;;5011217;28;20052;-58
2021/08/05 08:31:24;;;;;;;8.52;3.58;;;;;;;;;;5032694;28;21399;-58
2021/08/05 08:33:54;;;;;;;7.90;2.90;;;;;;;;;;5029595;28;20060;-58
2021/08/05 08:36:23;;;;;;;6.32;3.47;;;;;;;;;;5022440;28;20139;-58
2021/08/05 08:38:52;;;;;;;12.32;3.90;;;;;;;;;;5028727;28;20053;-58
2021/08/05 08:41:21;;;;;;;10.10;4.22;;;;;;;;;;5025698;28;20041;-58
2021/08/05 08:43:51;;;;;;;9.45;3.50;;;;;;;;;;5027889;28;20124;-58
2021/08/05 08:46:21;;;;;;;6.45;3.80;;;;;;;;;;5034978;28;20044;-58
2021/08/05 08:48:52;;;;;;;5.47;3.15;;;;;;;;;;5022708;28;20141;-58
2021/08/05 08:51:23;;;;;;;7.07;3.47;;;;;;;;;;5030928;28;20064;-58
2021/08/05 08:53:53;;;;;;;5.85;3.30;;;;;;;;;;5030491;28;20057;-59
2021/08/05 08:56:23;;;;;;;6.65;3.80;;;;;;;;;;5021128;28;20058;-57
2021/08/05 08:58:52;;;;;;;7.05;4.05;;;;;;;;;;5021575;28;20064;-58
2021/08/05 09:01:21;;;;;;;6.72;3.13;;;;;;;;;;5022696;28;20037;-58
2021/08/05 09:03:51;;;;;;;7.70;4.38;;;;;;;;;;5025766;28;20148;-57
2021/08/05 09:06:20;;;;;;;7.30;3.60;;;;;;;;;;5024714;28;20661;-57
2021/08/05 09:08:50;;;;;;;5.90;3.40;;;;;;;;;;5027032;28;20041;-57
2021/08/05 09:11:19;;;;;;;8.60;3.53;;;;;;;;;;5025847;28;20060;-58
2021/08/05 09:13:48;;;;;;;8.40;3.60;;;;;;;;;;5027789;28;20044;-57
2021/08/05 09:16:24;;;;;;;7.50;3.90;;;;;;;;;;5040222;28;20161;-57
2021/08/05 09:18:53;;;;;;;6.63;3.53;;;;;;;;;;5025602;28;20049;-57
2021/08/05 09:21:23;;;;;;;6.97;3.28;;;;;;;;;;5022788;28;20053;-57
2021/08/05 09:23:55;;;;;;;11.35;4.25;;;;;;;;;;5034018;28;20575;-57
2021/08/05 09:26:25;;;;;;;6.57;3.78;;;;;;;;;;5033288;28;20045;-58
2021/08/05 09:29:04;;;;;;;12.57;3.80;;;;;;;;;;5022970;28;20583;-58
2021/08/05 09:31:34;;;;;;;6.07;3.70;;;;;;;;;;5014874;28;20391;-57
2021/08/05 09:34:03;;;;;;;6.43;3.20;;;;;;;;;;5029203;28;20413;-58
2021/08/05 09:36:33;;;;;;;10.68;4.22;;;;;;;;;;5029369;28;20066;-57
2021/08/05 09:39:03;;;;;;;9.45;3.40;;;;;;;;;;5012605;28;20096;-57
2021/08/05 09:41:32;;;;;;;7.57;3.72;;;;;;;;;;5021679;28;20347;-58
2021/08/05 09:44:04;;;;;;;6.57;3.72;;;;;;;;;;5023800;28;20064;-59
2021/08/05 09:46:34;;;;;;;6.18;4.00;;;;;;;;;;5034585;28;20045;-56
2021/08/05 09:49:03;;;;;;;8.10;3.60;;;;;;;;;;5025995;28;20065;-57
2021/08/05 09:51:36;;;;;;;9.23;3.83;;;;;;;;;;5029256;28;20056;-57
2021/08/05 09:54:06;;;;;;;6.45;3.92;;;;;;;;;;5030398;28;20485;-58
2021/08/05 09:56:36;;;;;;;6.03;3.67;;;;;;;;;;5024353;28;20045;-57
2021/08/05 09:59:06;;;;;;;6.13;3.15;;;;;;;;;;5014873;28;20053;-57
2021/08/05 10:01:35;;;;;;;4.47;2.67;;;;;;;;;;5036492;28;20106;-57
2021/08/05 10:04:19;;;;;;;6.47;3.63;;;;;;;;;;5033281;28;20049;-57
2021/08/05 10:06:56;;;;;;;5.57;3.53;;;;;;;;;;5028169;28;20545;-56
2021/08/05 10:09:26;;;;;;;8.02;3.83;;;;;;;;;;5023349;28;20096;-56
2021/08/05 10:12:09;;;;;;;6.47;3.70;;;;;;;;;;5022141;28;20455;-57
2021/08/05 10:14:38;;;;;;;5.05;3.25;;;;;;;;;;5035265;28;20144;-58
2021/08/05 10:17:07;;;;;;;5.55;3.53;;;;;;;;;;5031638;28;20057;-57
2021/08/05 10:19:39;;;;;;;5.60;2.85;;;;;;;;;;5046250;28;20045;-57
2021/08/05 10:22:09;;;;;;;4.60;2.47;;;;;;;;;;5036165;28;20049;-57
2021/08/05 10:24:40;;;;;;;3.65;2.05;;;;;;;;;;5033931;28;20458;-57
2021/08/05 10:27:10;;;;;;;5.90;2.20;;;;;;;;;;5027032;28;20138;-57
2021/08/05 10:29:39;;;;;;;5.38;2.22;;;;;;;;;;5026044;28;20521;-57
2021/08/05 10:32:09;;;;;;;3.60;2.25;;;;;;;;;;5034797;28;20462;-58
2021/08/05 10:34:38;;;;;;;4.18;1.95;;;;;;;;;;5034809;28;20049;-58
2021/08/05 10:37:08;;;;;;;2.53;1.63;;;;;;;;;;5035008;28;20051;-58
2021/08/05 10:39:36;;;;;;;5.40;2.03;;;;;;;;;;5019128;28;20085;-57
2021/08/05 10:42:08;;;;;;;2.80;1.80;;;;;;;;;;5017879;28;20045;-58
2021/08/05 10:44:37;;;;;;;3.58;1.65;;;;;;;;;;5015124;28;20128;-58
2021/08/05 10:47:07;;;;;;;2.90;1.80;;;;;;;;;;5018124;28;20060;-58
2021/08/05 10:49:36;;;;;;;3.85;1.90;;;;;;;;;;5015952;28;20181;-58
2021/08/05 10:52:05;;;;;;;5.68;1.95;;;;;;;;;;5018903;28;20056;-58
2021/08/05 10:54:54;;;;;;;3.95;1.90;;;;;;;;;;5018069;28;20099;-57
2021/08/05 10:57:25;;;;;;;3.08;1.67;;;;;;;;;;5026721;28;20046;-57
2021/08/05 11:00:05;;;;;;;4.85;1.77;;;;;;;;;;5013122;28;20100;-57
2021/08/05 11:02:46;;;;;;;5.63;1.88;;;;;;;;;;5037227;28;20061;-57
2021/08/05 11:05:30;;;;;;;2.92;2.28;;;;;;;;;;5040521;28;20052;-56
2021/08/05 11:08:23;;;;;;;3.13;2.00;;;;;;;;;;5016498;28;20054;-57
2021/08/05 11:10:51;;;;;;;3.03;1.75;;;;;;;;;;5025708;28;20096;-56
2021/08/05 11:13:23;;;;;;;4.70;2.17;;;;;;;;;;5031270;28;20132;-56
2021/08/05 11:15:52;;;;;;;3.08;2.03;;;;;;;;;;5034951;28;20107;-57
2021/08/05 11:18:22;;;;;;;4.70;2.17;;;;;;;;;;5025493;28;20128;-57
2021/08/05 11:21:09;;;;;;;6.45;1.75;;;;;;;;;;5024180;28;20549;-57
2021/08/05 11:23:42;;;;;;;4.43;2.15;;;;;;;;;;5025688;28;20444;-57
2021/08/05 11:26:11;;;;;;;5.22;1.65;;;;;;;;;;5030214;28;20050;-57
2021/08/05 11:28:48;;;;;;;3.72;1.67;;;;;;;;;;5023441;28;20049;-57
2021/08/05 11:31:31;;;;;;;4.95;1.92;;;;;;;;;;5022029;28;20049;-57
2021/08/05 11:34:02;;;;;;;2.38;1.70;;;;;;;;;;5029485;28;20045;-57
2021/08/05 11:36:33;;;;;;;4.70;2.10;;;;;;;;;;5044639;28;20055;-57
2021/08/05 11:39:12;;;;;;;5.15;1.92;;;;;;;;;;5032358;28;20045;-57
2021/08/05 11:41:59;;;;;;;6.03;1.73;;;;;;;;;;5019507;28;20041;-57
2021/08/05 11:44:30;;;;;;;3.42;1.77;;;;;;;;;;5032353;28;20184;-57
2021/08/05 11:47:11;;;;;;;3.13;1.60;;;;;;;;;;5022375;28;20052;-57
2021/08/05 11:49:40;;;;;;;3.00;1.80;;;;;;;;;;5029290;28;20498;-57
2021/08/05 11:52:09;;;;;;;2.28;1.50;;;;;;;;;;5014918;28;20497;-57
2021/08/05 11:54:38;;;;;;;2.72;1.63;;;;;;;;;;5022750;28;20054;-58
2021/08/05 11:57:07;;;;;;;4.70;1.90;;;;;;;;;;5033630;28;20095;-57
2021/08/05 11:59:38;;;;;;;6.25;1.70;;;;;;;;;;5043071;28;20107;-57
2021/08/05 12:02:08;;;;;;;4.20;2.35;;;;;;;;;;5034801;28;20079;-57
2021/08/05 12:04:37;;;;;;;3.80;1.63;;;;;;;;;;5032689;28;20540;-57
2021/08/05 12:07:25;;;;;;;2.65;1.73;;;;;;;;;;5032622;28;20469;-56
2021/08/05 12:09:55;;;;;;;2.08;1.30;;;;;;;;;;5023454;28;20541;-57
2021/08/05 12:12:23;;;;;;;2.33;1.35;;;;;;;;;;5031862;28;20099;-57
2021/08/05 12:14:54;;;;;;;3.55;1.67;;;;;;;;;;5036595;28;20136;-57
2021/08/05 12:17:47;;;;;;;4.22;1.50;;;;;;;;;;5029112;28;20056;-57
2021/08/05 12:20:20;;;;;;;3.25;1.42;;;;;;;;;;5010049;28;20142;-57
2021/08/05 12:22:49;;;;;;;2.33;1.50;;;;;;;;;;5042667;28;20485;-57
2021/08/05 12:25:29;;;;;;;5.13;1.67;;;;;;;;;;5019442;28;20446;-57
2021/08/05 12:28:01;;;;;;;2.50;1.63;;;;;;;;;;5022781;28;20200;-58
2021/08/05 12:30:35;;;;;;;2.10;1.20;;;;;;;;;;5047255;28;20489;-57
2021/08/05 12:33:05;;;;;;;2.83;1.17;;;;;;;;;;5044949;28;20095;-57
2021/08/05 12:35:33;;;;;;;1.88;1.15;;;;;;;;;;5044306;28;20118;-57
2021/08/05 12:38:04;;;;;;;1.88;1.10;;;;;;;;;;5022270;28;20058;-57
2021/08/05 12:40:32;;;;;;;1.70;1.10;;;;;;;;;;5021879;28;20077;-56
2021/08/05 12:43:03;;;;;;;2.20;1.30;;;;;;;;;;5024359;28;20309;-57
2021/08/05 12:45:37;;;;;;;3.03;1.42;;;;;;;;;;5032461;28;20057;-58
2021/08/05 12:48:07;;;;;;;5.50;1.48;;;;;;;;;;5044995;28;20076;-57
2021/08/05 12:50:39;;;;;;;2.05;1.23;;;;;;;;;;5025938;28;20049;-57
2021/08/05 12:53:28;;;;;;;1.90;1.30;;;;;;;;;;5022732;28;20144;-57
2021/08/05 12:55:57;;;;;;;1.85;0.98;;;;;;;;;;5038210;28;20354;-56
2021/08/05 12:58:26;;;;;;;3.45;1.45;;;;;;;;;;5032020;28;20412;-57
2021/08/05 13:01:13;;;;;;;2.60;1.23;;;;;;;;;;5039928;28;20053;-57
2021/08/05 13:03:42;;;;;;;2.90;1.20;;;;;;;;;;5031880;28;20405;-57
2021/08/05 13:06:11;;;;;;;2.58;1.27;;;;;;;;;;5034012;28;20377;-57
2021/08/05 13:08:40;;;;;;;3.63;1.42;;;;;;;;;;5038149;28;20201;-56
2021/08/05 13:11:10;;;;;;;3.83;1.13;;;;;;;;;;5029045;28;20077;-57
2021/08/05 13:13:53;;;;;;;3.38;1.42;;;;;;;;;;5032575;28;20129;-57
2021/08/05 13:16:24;;;;;;;1.60;0.85;;;;;;;;;;5019104;28;20084;-57
2021/08/05 13:19:09;;;;;;;4.05;1.10;;;;;;;;;;5036714;28;20045;-57
2021/08/05 13:21:51;;;;;;;2.03;1.23;;;;;;;;;;5027815;28;20386;-57
2021/08/05 13:24:20;;;;;;;0.90;0.80;;;;;;;;;;5027152;28;20128;-57
2021/08/05 13:26:49;;;;;;;1.80;1.10;;;;;;;;;;5027534;28;20076;-57
2021/08/05 13:29:42;;;;;;;1.10;0.98;;;;;;;;;;5031211;28;20102;-57
2021/08/05 13:32:13;;;;;;;3.50;1.00;;;;;;;;;;4997805;28;20061;-57
2021/08/05 13:34:56;;;;;;;0.77;0.70;;;;;;;;;;5014549;28;20057;-57
2021/08/05 13:37:26;;;;;;;3.22;0.80;;;;;;;;;;5027983;28;20064;-57
2021/08/05 13:39:56;;;;;;;1.25;0.80;;;;;;;;;;5025480;28;20120;-57
2021/08/05 13:42:25;;;;;;;2.92;0.98;;;;;;;;;;5028527;28;20124;-57
2021/08/05 13:44:54;;;;;;;1.70;1.00;;;;;;;;;;5028507;28;20060;-56
2021/08/05 13:47:24;;;;;;;1.45;0.80;;;;;;;;;;5035639;28;20061;-56
2021/08/05 13:49:52;;;;;;;1.92;1.00;;;;;;;;;;5032251;28;20053;-57
2021/08/05 13:52:21;;;;;;;1.80;0.95;;;;;;;;;;5024040;28;20045;-58
2021/08/05 13:54:49;;;;;;;1.70;1.10;;;;;;;;;;5032780;28;20107;-57
2021/08/05 13:57:17;;;;;;;1.05;0.70;;;;;;;;;;5025621;28;20414;-59
2021/08/05 13:59:45;;;;;;;1.65;0.70;;;;;;;;;;5028585;28;20091;-57
2021/08/05 14:02:14;;;;;;;0.60;0.50;;;;;;;;;;5041304;28;20122;-57
2021/08/05 14:04:44;;;;;;;1.30;0.90;;;;;;;;;;5034023;28;20053;-57
2021/08/05 14:07:13;;;;;;;1.20;0.90;;;;;;;;;;5031155;28;20362;-57
2021/08/05 14:09:42;;;;;;;1.15;0.70;;;;;;;;;;5025873;28;20421;-57
2021/08/05 14:12:11;;;;;;;1.55;0.70;;;;;;;;;;5020994;28;20076;-56
2021/08/05 14:14:39;;;;;;;4.32;1.00;;;;;;;;;;5030928;28;20397;-57
2021/08/05 14:17:08;;;;;;;1.30;0.60;;;;;;;;;;5033357;28;20049;-58
2021/08/05 14:19:36;;;;;;;1.00;0.90;;;;;;;;;;5033710;28;20080;-58
2021/08/05 14:22:07;;;;;;;2.38;0.65;;;;;;;;;;5028951;28;20325;-58
2021/08/05 14:24:36;;;;;;;0.80;0.70;;;;;;;;;;5030730;28;20474;-58
2021/08/05 14:27:05;;;;;;;1.00;0.60;;;;;;;;;;5045970;28;20045;-57
2021/08/05 14:29:33;;;;;;;1.40;0.70;;;;;;;;;;5029702;28;20057;-57
2021/08/05 14:32:03;;;;;;;1.08;0.70;;;;;;;;;;5025751;28;20646;-58
2021/08/05 14:34:32;;;;;;;1.58;0.70;;;;;;;;;;5018767;28;20115;-58
2021/08/05 14:37:00;;;;;;;1.58;0.60;;;;;;;;;;5022543;28;20417;-58
2021/08/05 14:39:30;;;;;;;0.85;0.75;;;;;;;;;;5023678;28;20045;-58
2021/08/05 14:41:58;;;;;;;0.95;0.75;;;;;;;;;;5030990;28;20428;-58
2021/08/05 14:44:27;;;;;;;1.10;0.60;;;;;;;;;;5024274;28;20061;-58
2021/08/05 14:46:55;;;;;;;1.90;0.70;;;;;;;;;;5041248;28;20102;-57
2021/08/05 14:49:24;;;;;;;1.50;0.70;;;;;;;;;;5027661;28;20378;-58
2021/08/05 14:51:53;;;;;;;2.00;0.70;;;;;;;;;;5026299;28;20516;-57
2021/08/05 14:54:22;;;;;;;2.45;0.82;;;;;;;;;;5032213;28;20091;-56
2021/08/05 14:56:51;;;;;;;1.98;0.80;;;;;;;;;;5042716;28;20076;-57
2021/08/05 14:59:20;;;;;;;1.70;0.80;;;;;;;;;;5025042;28;20053;-56
2021/08/05 15:01:48;;;;;;;2.13;0.60;;;;;;;;;;5036107;28;20106;-57